Time;durP1;ratioP1;P1;durP2;ratioP2;P2;SDS_P1;SDS_P2;PMS_P1;PMS_P2;Temp;Humidity;BMP_temperature;BMP_pressure;BME280_temperature;BME280_humidity;BME280_pressure;Samples;Min_cycle;Max_cycle;Signal;HPM_P1;HPM_P2
2022/12/14 00:00:45;;;;;;;76.07;35.30;;;-5.40;99.90;;;;;;5032989;28;20049;-28
2022/12/14 00:03:11;;;;;;;78.97;34.83;;;-5.50;99.90;;;;;;5034535;28;20061;-28
2022/12/14 00:05:37;;;;;;;81.90;34.30;;;-5.50;99.90;;;;;;5033697;28;20045;-28
2022/12/14 00:08:03;;;;;;;79.97;35.53;;;-5.60;99.90;;;;;;5049699;28;20049;-28
2022/12/14 00:10:31;;;;;;;78.73;35.53;;;-5.60;99.90;;;;;;5032752;28;20045;-29
2022/12/14 00:12:57;;;;;;;75.80;35.10;;;-5.60;99.90;;;;;;5033796;28;20129;-29
2022/12/14 00:15:22;;;;;;;70.80;34.77;;;-5.40;99.90;;;;;;5033840;28;20128;-28
2022/12/14 00:17:48;;;;;;;69.50;32.70;;;-5.60;99.90;;;;;;5033824;28;20493;-29
2022/12/14 00:20:14;;;;;;;86.87;35.40;;;-5.70;99.90;;;;;;5033071;28;20053;-29
2022/12/14 00:22:39;;;;;;;71.73;35.00;;;-5.80;99.90;;;;;;5033647;28;20050;-29
2022/12/14 00:25:06;;;;;;;65.77;33.87;;;-5.80;99.90;;;;;;5049607;28;20049;-29
2022/12/14 00:27:31;;;;;;;77.33;34.33;;;-5.90;99.90;;;;;;5032755;28;20045;-29
2022/12/14 00:29:57;;;;;;;69.00;33.20;;;-5.90;99.90;;;;;;5032153;28;20061;-29
2022/12/14 00:32:23;;;;;;;77.93;35.77;;;-5.90;99.90;;;;;;5033644;28;20061;-29
2022/12/14 00:34:49;;;;;;;73.23;32.57;;;-6.00;99.90;;;;;;5033866;28;20046;-28
2022/12/14 00:37:15;;;;;;;74.90;34.10;;;-6.00;99.90;;;;;;5034124;28;20103;-29
2022/12/14 00:39:40;;;;;;;73.43;34.70;;;-6.00;99.90;;;;;;5033258;28;20049;-29
2022/12/14 00:42:06;;;;;;;74.13;34.70;;;-6.10;99.90;;;;;;5033534;28;20096;-29
2022/12/14 00:44:32;;;;;;;67.90;31.50;;;-6.10;99.90;;;;;;5032336;28;20041;-29
2022/12/14 00:46:58;;;;;;;85.47;35.73;;;-6.20;99.90;;;;;;5033456;28;20045;-28
2022/12/14 00:49:24;;;;;;;76.93;34.30;;;-6.20;99.90;;;;;;5032811;28;20395;-29
2022/12/14 00:51:50;;;;;;;76.33;34.97;;;-6.30;99.90;;;;;;5034271;28;20045;-28
2022/12/14 00:54:16;;;;;;;78.47;34.27;;;-6.30;99.90;;;;;;5033407;28;20476;-28
2022/12/14 00:56:42;;;;;;;73.00;34.03;;;-6.40;99.90;;;;;;5033970;28;20042;-28
2022/12/14 00:59:07;;;;;;;76.43;32.83;;;-6.50;99.90;;;;;;5033365;28;20045;-28
2022/12/14 01:01:33;;;;;;;72.07;33.97;;;-6.60;99.90;;;;;;5032197;28;20179;-29
2022/12/14 01:04:18;;;;;;;78.73;35.23;;;-6.60;99.90;;;;;;5033322;28;20056;-28
2022/12/14 01:06:49;;;;;;;84.90;34.20;;;-6.70;99.90;;;;;;5033921;28;20045;-29
2022/12/14 01:09:16;;;;;;;78.47;33.33;;;-6.80;99.90;;;;;;5033255;28;20046;-29
2022/12/14 01:11:42;;;;;;;76.40;35.00;;;-6.70;99.90;;;;;;5033269;28;20042;-29
2022/12/14 01:14:10;;;;;;;81.53;35.00;;;-6.70;99.90;;;;;;5032069;28;20052;-28
2022/12/14 01:16:36;;;;;;;79.27;34.83;;;-6.80;99.90;;;;;;5033256;28;20045;-29
2022/12/14 01:19:03;;;;;;;78.20;33.77;;;-6.80;99.90;;;;;;5035853;28;20384;-28
2022/12/14 01:21:28;;;;;;;76.87;34.57;;;-6.80;99.90;;;;;;5052902;28;20050;-28
2022/12/14 01:23:57;;;;;;;80.17;33.90;;;-6.90;99.90;;;;;;5036871;28;20240;-29
2022/12/14 01:26:23;;;;;;;73.57;33.67;;;-6.90;99.90;;;;;;5037682;28;20053;-29
2022/12/14 01:28:51;;;;;;;79.23;33.97;;;-7.00;99.90;;;;;;5035554;28;20051;-29
2022/12/14 01:31:20;;;;;;;69.03;33.27;;;-7.10;99.90;;;;;;5037933;28;20452;-28
2022/12/14 01:33:47;;;;;;;76.03;34.20;;;-7.10;99.90;;;;;;5068735;28;20412;-29
2022/12/14 01:36:18;;;;;;;80.03;33.70;;;-7.20;99.90;;;;;;5036966;28;20041;-29
2022/12/14 01:38:44;;;;;;;71.37;32.40;;;-7.20;99.90;;;;;;5037549;28;20049;-28
2022/12/14 01:41:31;;;;;;;79.50;34.73;;;-7.20;99.90;;;;;;5036531;28;20472;-28
2022/12/14 01:44:00;;;;;;;72.37;34.87;;;-7.30;99.90;;;;;;5035069;28;20050;-28
2022/12/14 01:46:44;;;;;;;69.07;30.17;;;-7.30;99.90;;;;;;5035308;28;20091;-28
2022/12/14 01:49:21;;;;;;;75.83;32.33;;;-7.40;99.90;;;;;;5068582;28;20132;-28
2022/12/14 01:51:56;;;;;;;68.20;32.57;;;-7.40;99.90;;;;;;5036453;28;20041;-28
2022/12/14 01:54:22;;;;;;;71.57;32.03;;;-7.50;99.90;;;;;;5051901;28;20052;-28
2022/12/14 01:56:49;;;;;;;73.03;33.87;;;-7.60;99.90;;;;;;5037173;28;20052;-28
2022/12/14 01:59:22;;;;;;;72.93;31.97;;;-7.60;99.90;;;;;;5036365;28;20060;-29
2022/12/14 02:01:48;;;;;;;67.85;31.67;;;-7.70;99.90;;;;;;5036819;28;20424;-29
2022/12/14 02:04:16;;;;;;;67.73;29.67;;;-7.80;99.90;;;;;;5036175;28;20053;-37
2022/12/14 02:06:43;;;;;;;70.43;30.97;;;-7.80;99.90;;;;;;5035053;28;20049;-28
2022/12/14 02:09:15;;;;;;;86.70;33.17;;;-7.80;99.90;;;;;;5036089;28;20056;-28
2022/12/14 02:11:56;;;;;;;67.53;29.67;;;-7.90;99.90;;;;;;5035729;28;20372;-28
2022/12/14 02:14:23;;;;;;;55.63;27.03;;;-7.90;99.90;;;;;;5036664;28;20449;-28
2022/12/14 02:16:51;;;;;;;63.30;27.97;;;-8.10;99.90;;;;;;5034999;28;20499;-28
2022/12/14 02:19:17;;;;;;;58.50;27.57;;;-8.20;99.90;;;;;;5035914;28;20084;-28
2022/12/14 02:22:11;;;;;;;61.43;28.53;;;-8.40;99.90;;;;;;5036645;28;20076;-29
2022/12/14 02:24:59;;;;;;;66.80;27.23;;;-8.50;99.90;;;;;;5035872;28;20049;-28
2022/12/14 02:27:37;;;;;;;63.27;27.80;;;-8.50;99.90;;;;;;5034675;28;20041;-28
2022/12/14 02:30:05;;;;;;;69.80;29.23;;;-8.50;99.90;;;;;;5036212;28;20072;-28
2022/12/14 02:32:52;;;;;;;67.37;30.77;;;-8.40;99.90;;;;;;5035722;28;20451;-28
2022/12/14 02:35:26;;;;;;;74.03;32.17;;;-8.30;99.90;;;;;;5036262;28;20046;-27
2022/12/14 02:38:21;;;;;;;78.50;33.03;;;-8.30;99.90;;;;;;5035889;28;20472;-28
2022/12/14 02:40:59;;;;;;;73.53;32.77;;;-8.20;99.90;;;;;;5035528;28;20050;-28
2022/12/14 02:43:48;;;;;;;75.80;32.03;;;-8.20;99.90;;;;;;5034416;28;20060;-28
2022/12/14 02:46:27;;;;;;;74.83;30.67;;;-8.20;99.90;;;;;;5035792;28;20060;-28
2022/12/14 02:49:06;;;;;;;74.83;31.43;;;-8.10;99.90;;;;;;5035506;28;20475;-28
2022/12/14 02:51:56;;;;;;;75.50;33.30;;;-8.10;99.90;;;;;;5035392;28;20050;-28
2022/12/14 02:54:37;;;;;;;87.13;33.63;;;-8.00;99.90;;;;;;5035322;28;20488;-28
2022/12/14 02:57:12;;;;;;;83.07;34.90;;;-7.90;99.90;;;;;;5033714;28;20060;-28
2022/12/14 02:59:39;;;;;;;81.60;35.73;;;-7.80;99.90;;;;;;5036054;28;20049;-29
2022/12/14 03:02:05;;;;;;;84.47;35.33;;;-7.80;99.90;;;;;;5035048;28;20049;-28
2022/12/14 03:04:31;;;;;;;76.50;35.00;;;-7.70;99.90;;;;;;5035074;28;20080;-28
2022/12/14 03:07:20;;;;;;;92.60;37.90;;;-7.70;99.90;;;;;;5067625;28;20045;-29
2022/12/14 03:09:46;;;;;;;80.23;34.70;;;-7.70;99.90;;;;;;5034638;28;20048;-28
2022/12/14 03:12:14;;;;;;;84.47;36.03;;;-7.70;99.90;;;;;;5034942;28;20391;-28
2022/12/14 03:14:46;;;;;;;83.07;35.93;;;-7.70;99.90;;;;;;5034518;28;20045;-28
2022/12/14 03:17:23;;;;;;;83.17;34.87;;;-7.70;99.90;;;;;;5034730;28;20057;-28
2022/12/14 03:20:13;;;;;;;76.73;33.13;;;-7.80;99.90;;;;;;5034139;28;20049;-28
2022/12/14 03:22:49;;;;;;;77.67;33.93;;;-7.80;99.90;;;;;;5048113;28;20045;-28
2022/12/14 03:25:22;;;;;;;85.00;32.77;;;-7.90;99.90;;;;;;5035282;28;20060;-28
2022/12/14 03:28:13;;;;;;;82.75;34.38;;;-7.90;99.90;;;;;;5034658;28;20041;-30
2022/12/14 03:30:41;;;;;;;80.63;33.47;;;-7.90;99.90;;;;;;5032361;28;20492;-28
2022/12/14 03:33:13;;;;;;;82.20;34.77;;;-7.90;99.90;;;;;;5034498;28;20054;-28
2022/12/14 03:35:51;;;;;;;76.70;33.07;;;-7.90;99.90;;;;;;5033949;28;20049;-28
2022/12/14 03:38:20;;;;;;;74.03;32.50;;;-7.90;99.90;;;;;;5034344;28;20080;-28
2022/12/14 03:41:06;;;;;;;75.90;31.40;;;-8.00;99.90;;;;;;5079405;28;20049;-28
2022/12/14 03:43:55;;;;;;;76.00;33.40;;;-8.10;99.90;;;;;;5087142;28;20120;-28
2022/12/14 03:46:50;;;;;;;73.13;31.27;;;-8.10;99.90;;;;;;5054237;28;20123;-28
2022/12/14 03:49:23;;;;;;;79.27;32.43;;;-8.10;99.90;;;;;;5054217;28;20060;-27
2022/12/14 03:52:14;;;;;;;80.35;31.88;;;-8.00;99.90;;;;;;5075980;28;20096;-28
2022/12/14 03:55:02;;;;;;;71.37;30.73;;;-8.00;99.90;;;;;;5047696;28;20083;-28
2022/12/14 03:57:46;;;;;;;74.43;30.60;;;-8.00;99.90;;;;;;5053969;28;20470;-28
2022/12/14 04:00:17;;;;;;;73.53;30.33;;;-8.10;99.90;;;;;;5052828;28;20048;-27
2022/12/14 04:02:48;;;;;;;76.23;31.07;;;-8.10;99.90;;;;;;5054808;28;20045;-29
2022/12/14 04:05:42;;;;;;;78.07;31.40;;;-8.10;99.90;;;;;;5053966;28;20049;-28
2022/12/14 04:08:35;;;;;;;75.25;29.15;;;-8.20;99.90;;;;;;5053919;28;20487;-28
2022/12/14 04:19:41;;;;;;;68.77;30.33;;;-8.20;99.90;;;;;;5033776;28;20515;-28
2022/12/14 04:22:17;;;;;;;61.53;29.00;;;-8.20;99.90;;;;;;5033539;28;20128;-28
2022/12/14 04:27:52;;;;;;;66.50;27.70;;;-8.40;99.90;;;;;;5066434;28;20053;-27
2022/12/14 04:30:18;;;;;;;67.23;28.07;;;-8.40;99.90;;;;;;5034041;28;20111;-28
2022/12/14 04:32:49;;;;;;;71.27;29.00;;;-8.50;99.90;;;;;;5032682;28;20443;-27
2022/12/14 04:35:22;;;;;;;56.50;25.63;;;-8.50;99.90;;;;;;5034338;28;20053;-28
2022/12/14 04:37:51;;;;;;;;;;;-8.50;99.90;;;;;;5066059;28;20053;-28
2022/12/14 04:40:24;;;;;;;57.77;25.33;;;-8.60;99.90;;;;;;5033495;28;19928;-28
2022/12/14 04:42:58;;;;;;;67.43;26.75;;;-8.60;99.90;;;;;;5033620;28;20049;-28
2022/12/14 04:45:39;;;;;;;55.13;26.10;;;-8.60;99.90;;;;;;5034170;28;20383;-27
2022/12/14 04:48:34;;;;;;;66.03;27.00;;;-8.60;99.90;;;;;;5033620;28;20064;-28
2022/12/14 04:51:08;;;;;;;55.07;25.40;;;-8.60;99.90;;;;;;5032366;28;20037;-28
2022/12/14 04:53:37;;;;;;;60.70;25.87;;;-8.70;99.90;;;;;;5068798;28;20561;-29
2022/12/14 04:56:14;;;;;;;58.70;26.27;;;-8.80;99.90;;;;;;5037525;28;20053;-27
2022/12/14 04:58:41;;;;;;;57.10;26.13;;;-8.80;99.90;;;;;;5038045;28;20045;-27
2022/12/14 05:01:28;;;;;;;60.00;25.17;;;-8.80;99.90;;;;;;5036750;28;20121;-27
2022/12/14 05:04:08;;;;;;;52.23;22.93;;;-8.90;99.90;;;;;;5038239;28;20168;-27
2022/12/14 05:06:45;;;;;;;52.47;23.63;;;-8.80;99.90;;;;;;5036228;28;20065;-27
2022/12/14 05:09:14;;;;;;;50.80;22.87;;;-9.20;99.90;;;;;;5037303;28;20088;-27
2022/12/14 05:11:51;;;;;;;54.67;24.53;;;-9.30;99.90;;;;;;5037232;28;20046;-28
2022/12/14 05:14:40;;;;;;;56.53;25.80;;;-9.20;99.90;;;;;;5035962;28;20091;-28
2022/12/14 05:17:07;;;;;;;53.83;23.07;;;-9.20;99.90;;;;;;5036440;28;20068;-27
2022/12/14 05:19:33;;;;;;;46.80;22.73;;;-9.20;99.90;;;;;;5037595;28;20046;-28
2022/12/14 05:22:05;;;;;;;55.93;25.43;;;-9.20;99.90;;;;;;5036976;28;20064;-27
2022/12/14 05:24:31;;;;;;;65.22;25.83;;;-9.10;99.90;;;;;;5069532;28;20056;-27
2022/12/14 05:26:57;;;;;;;53.77;24.13;;;-9.10;99.90;;;;;;5069215;28;20057;-27
2022/12/14 05:29:22;;;;;;;57.53;24.20;;;-9.10;99.90;;;;;;5019061;28;20058;-27
2022/12/14 05:31:50;;;;;;;57.53;24.13;;;-9.10;99.90;;;;;;5035138;28;20053;-28
2022/12/14 05:34:16;;;;;;;57.97;24.60;;;-9.10;99.90;;;;;;5037639;28;20103;-27
2022/12/14 05:36:42;;;;;;;55.47;24.73;;;-9.10;99.90;;;;;;5036449;28;20518;-27
2022/12/14 05:39:08;;;;;;;70.77;26.33;;;-9.10;99.90;;;;;;5037327;28;20054;-27
2022/12/14 05:41:34;;;;;;;63.87;26.40;;;-9.10;99.90;;;;;;5036563;28;20046;-27
2022/12/14 05:43:59;;;;;;;66.03;26.80;;;-9.10;99.90;;;;;;5036186;28;20051;-28
2022/12/14 05:46:25;;;;;;;66.93;27.10;;;-9.00;99.90;;;;;;5036579;28;20530;-27
2022/12/14 05:48:51;;;;;;;61.63;25.97;;;-9.00;99.90;;;;;;5036568;28;20140;-27
2022/12/14 05:51:17;;;;;;;59.70;26.23;;;-9.00;99.90;;;;;;5036465;28;20044;-28
2022/12/14 05:53:42;;;;;;;63.33;27.70;;;-9.00;99.90;;;;;;5036451;28;20053;-27
2022/12/14 05:56:10;;;;;;;61.97;26.27;;;-9.00;99.90;;;;;;5036397;28;20124;-27
2022/12/14 05:58:35;;;;;;;59.23;24.60;;;-8.90;99.90;;;;;;5036385;28;20049;-27
2022/12/14 06:01:04;;;;;;;57.00;25.00;;;-8.90;99.90;;;;;;5068316;28;20052;-27
2022/12/14 06:03:30;;;;;;;58.33;25.20;;;-9.00;99.90;;;;;;5034607;28;20057;-28
2022/12/14 06:06:22;;;;;;;56.13;25.07;;;-9.00;99.90;;;;;;5068363;28;20050;-27
2022/12/14 06:08:48;;;;;;;61.53;24.30;;;-9.00;99.90;;;;;;5032134;28;20065;-27
2022/12/14 06:11:16;;;;;;;61.20;24.73;;;-8.50;99.90;;;;;;5036097;28;20042;-27
2022/12/14 06:13:42;;;;;;;64.97;26.13;;;-9.00;99.90;;;;;;5036002;28;20037;-28
2022/12/14 06:16:13;;;;;;;63.80;25.47;;;-8.90;99.90;;;;;;5068418;28;20085;-27
2022/12/14 06:18:59;;;;;;;62.13;27.60;;;-8.90;99.90;;;;;;5036292;28;20041;-27
2022/12/14 06:21:34;;;;;;;69.37;26.17;;;-8.90;99.90;;;;;;5035863;28;20128;-27
2022/12/14 06:24:00;;;;;;;70.33;28.80;;;-8.80;99.90;;;;;;5036374;28;20134;-27
2022/12/14 06:26:28;;;;;;;73.90;29.17;;;-8.80;99.90;;;;;;5035736;28;20045;-27
2022/12/14 06:28:55;;;;;;;75.13;28.57;;;-8.70;99.90;;;;;;5035747;28;20057;-27
2022/12/14 06:31:23;;;;;;;71.77;29.97;;;-8.60;99.90;;;;;;5034264;28;20097;-27
2022/12/14 06:33:50;;;;;;;79.60;30.23;;;-8.60;99.90;;;;;;5034481;28;20053;-28
2022/12/14 06:36:22;;;;;;;75.70;31.03;;;-8.50;99.90;;;;;;5067947;28;20124;-27
2022/12/14 06:38:49;;;;;;;80.97;31.93;;;-8.40;99.90;;;;;;5067907;28;20049;-27
2022/12/14 06:41:14;;;;;;;82.77;31.47;;;-8.40;99.90;;;;;;5035425;28;20049;-27
2022/12/14 06:43:40;;;;;;;76.93;31.23;;;-8.30;99.90;;;;;;5036259;28;20037;-27
2022/12/14 06:46:10;;;;;;;75.47;31.57;;;-8.30;99.90;;;;;;5035440;28;20045;-27
2022/12/14 06:48:36;;;;;;;79.47;30.90;;;-8.30;99.90;;;;;;5035336;28;20052;-28
2022/12/14 06:51:04;;;;;;;86.70;31.27;;;-7.10;99.90;;;;;;5033827;28;20049;-27
2022/12/14 06:53:30;;;;;;;70.80;29.17;;;-8.00;99.90;;;;;;5035232;28;20056;-28
2022/12/14 06:56:26;;;;;;;78.83;30.97;;;-8.10;99.90;;;;;;5034114;28;20158;-27
2022/12/14 06:58:53;;;;;;;75.07;30.10;;;-8.10;99.90;;;;;;5026324;28;20062;-28
2022/12/14 07:01:21;;;;;;;73.90;30.97;;;-8.20;99.90;;;;;;5035148;28;20049;-27
2022/12/14 07:03:49;;;;;;;93.47;34.00;;;-8.20;99.90;;;;;;5035636;28;20364;-27
2022/12/14 07:06:15;;;;;;;86.73;31.20;;;-8.10;99.90;;;;;;5035048;28;20049;-27
2022/12/14 07:08:41;;;;;;;89.17;33.23;;;-8.10;99.90;;;;;;5035013;28;20048;-27
2022/12/14 07:11:11;;;;;;;75.30;31.03;;;-8.00;99.90;;;;;;5035016;28;20494;-27
2022/12/14 07:13:37;;;;;;;76.50;32.20;;;-7.10;99.90;;;;;;5068031;28;20132;-27
2022/12/14 07:16:04;;;;;;;85.87;32.47;;;-8.00;99.90;;;;;;5034435;28;20060;-27
2022/12/14 07:18:31;;;;;;;72.93;29.43;;;-8.00;99.90;;;;;;5034864;28;20129;-27
2022/12/14 07:21:05;;;;;;;73.13;29.53;;;-8.10;99.90;;;;;;5034673;28;20558;-28
2022/12/14 07:23:33;;;;;;;74.53;29.10;;;-8.10;99.90;;;;;;5035308;28;20132;-27
2022/12/14 07:26:00;;;;;;;71.10;30.37;;;-8.20;99.90;;;;;;5034708;28;20049;-27
2022/12/14 07:28:27;;;;;;;68.20;30.30;;;-8.20;99.90;;;;;;5034616;28;20483;-27
2022/12/14 07:30:56;;;;;;;75.10;29.73;;;-8.20;99.90;;;;;;5034601;28;20085;-27
2022/12/14 07:33:22;;;;;;;76.17;30.20;;;-8.30;99.90;;;;;;5034535;28;20103;-27
2022/12/14 07:35:48;;;;;;;74.13;30.90;;;-8.30;99.90;;;;;;5035447;28;20053;-27
2022/12/14 07:38:21;;;;;;;68.67;27.43;;;-8.30;99.90;;;;;;5091856;28;20774;-28
2022/12/14 07:40:47;;;;;;;74.67;29.97;;;-8.40;99.90;;;;;;5090003;28;20056;-27
2022/12/14 07:43:12;;;;;;;67.40;29.07;;;-8.40;99.90;;;;;;5089982;28;20087;-26
2022/12/14 07:45:38;;;;;;;70.13;27.30;;;-8.40;99.90;;;;;;5091120;28;20394;-27
2022/12/14 07:48:06;;;;;;;65.87;29.33;;;-8.40;99.90;;;;;;5089888;28;20040;-27
2022/12/14 07:50:31;;;;;;;66.40;26.87;;;-8.50;99.90;;;;;;5091830;28;20047;-27
2022/12/14 07:52:57;;;;;;;72.23;29.67;;;-8.50;99.90;;;;;;5091011;28;20456;-27
2022/12/14 07:55:23;;;;;;;64.33;28.37;;;-8.50;99.90;;;;;;5090656;28;20529;-27
2022/12/14 07:57:49;;;;;;;71.53;29.70;;;-7.40;99.90;;;;;;5091112;28;20045;-26
2022/12/14 08:00:15;;;;;;;69.40;28.30;;;-8.50;99.90;;;;;;5090502;28;20452;-27
2022/12/14 08:02:41;;;;;;;62.03;27.30;;;-8.50;99.90;;;;;;5090799;28;20055;-27
2022/12/14 08:05:07;;;;;;;71.03;27.20;;;-8.50;99.90;;;;;;5090744;28;20075;-27
2022/12/14 08:07:33;;;;;;;78.90;32.10;;;-8.50;99.90;;;;;;5090698;28;20040;-27
2022/12/14 08:09:59;;;;;;;79.37;29.60;;;-8.40;99.90;;;;;;5091462;28;20044;-27
2022/12/14 08:12:24;;;;;;;64.53;27.97;;;-8.40;99.90;;;;;;5089992;28;20495;-26
2022/12/14 08:14:50;;;;;;;62.83;26.07;;;-8.40;99.90;;;;;;5090592;28;20040;-27
2022/12/14 08:17:16;;;;;;;66.53;29.43;;;-8.40;99.90;;;;;;5090141;28;20098;-26
2022/12/14 08:19:42;;;;;;;74.30;29.20;;;-8.40;99.90;;;;;;5090492;28;20128;-26
2022/12/14 08:22:08;;;;;;;63.87;27.77;;;-8.30;99.90;;;;;;5090613;28;20048;-27
2022/12/14 08:24:33;;;;;;;74.27;30.20;;;-8.30;99.90;;;;;;5090283;28;20131;-27
2022/12/14 08:26:59;;;;;;;73.67;30.33;;;-8.20;99.90;;;;;;5089131;28;20040;-27
2022/12/14 08:29:25;;;;;;;67.90;27.90;;;-8.20;99.90;;;;;;5090852;28;20127;-27
2022/12/14 08:31:54;;;;;;;67.07;27.60;;;-8.20;99.90;;;;;;5090798;28;20474;-27
2022/12/14 08:34:21;;;;;;;59.70;25.57;;;-8.20;99.90;;;;;;5090188;28;20079;-26
2022/12/14 08:36:47;;;;;;;61.97;25.23;;;-8.20;99.90;;;;;;5089924;28;20056;-27
2022/12/14 08:39:13;;;;;;;62.80;25.07;;;-8.30;99.90;;;;;;5090093;28;20131;-27
2022/12/14 08:41:39;;;;;;;61.93;25.60;;;-8.40;99.90;;;;;;5090092;28;20135;-27
2022/12/14 08:44:05;;;;;;;62.63;26.47;;;-8.40;99.90;;;;;;5072667;28;20040;-27
2022/12/14 08:46:32;;;;;;;65.47;27.63;;;-8.40;99.90;;;;;;5090491;28;20048;-27
2022/12/14 08:48:58;;;;;;;70.87;29.73;;;-8.30;99.90;;;;;;5080538;28;20052;-27
2022/12/14 08:51:26;;;;;;;75.83;30.00;;;-8.10;99.90;;;;;;5076324;28;20529;-27
2022/12/14 08:53:52;;;;;;;76.60;30.40;;;-7.90;99.90;;;;;;5077109;28;20119;-27
2022/12/14 08:56:24;;;;;;;80.43;32.10;;;-7.80;99.90;;;;;;5059378;28;20044;-27
2022/12/14 08:58:49;;;;;;;79.90;30.67;;;-7.60;99.90;;;;;;5075157;28;20052;-27
2022/12/14 09:01:20;;;;;;;74.97;31.53;;;-7.50;99.90;;;;;;5076181;28;20041;-27
2022/12/14 09:03:46;;;;;;;90.10;33.77;;;-7.40;99.90;;;;;;5075009;28;20131;-27
2022/12/14 09:06:19;;;;;;;94.47;32.30;;;-7.20;99.90;;;;;;5076111;28;20045;-27
2022/12/14 09:08:46;;;;;;;85.65;31.88;;;-7.20;99.90;;;;;;5076166;28;20048;-27
2022/12/14 09:11:14;;;;;;;88.90;32.47;;;-7.10;99.90;;;;;;5075991;28;20055;-27
2022/12/14 09:13:40;;;;;;;81.00;32.13;;;-7.00;99.90;;;;;;5074392;28;20487;-27
2022/12/14 09:16:17;;;;;;;87.63;34.83;;;-7.00;99.90;;;;;;5075895;28;20051;-27
2022/12/14 09:18:44;;;;;;;81.27;31.90;;;-6.90;99.90;;;;;;5075974;28;20167;-27
2022/12/14 09:21:10;;;;;;;78.57;31.70;;;-6.90;99.90;;;;;;5075817;28;20051;-27
2022/12/14 09:23:36;;;;;;;77.47;32.80;;;-5.90;99.90;;;;;;5057964;28;20091;-27
2022/12/14 09:26:05;;;;;;;66.77;30.80;;;-6.70;99.90;;;;;;5076312;28;20128;-26
2022/12/14 09:28:33;;;;;;;74.67;32.60;;;-6.60;99.90;;;;;;5074749;28;20045;-27
2022/12/14 09:31:04;;;;;;;85.60;32.70;;;-6.50;99.90;;;;;;5074950;28;20125;-28
2022/12/14 09:33:30;;;;;;;79.10;31.03;;;-6.30;99.90;;;;;;5076221;28;20044;-27
2022/12/14 09:36:17;;;;;;;76.53;31.03;;;-6.20;99.90;;;;;;5074323;28;20041;-28
2022/12/14 09:38:43;;;;;;;74.63;32.20;;;-6.10;99.90;;;;;;5075385;28;20376;-27
2022/12/14 09:41:24;;;;;;;70.47;31.13;;;-6.00;99.90;;;;;;5075444;28;20044;-27
2022/12/14 09:44:01;;;;;;;64.03;30.10;;;-5.90;99.90;;;;;;5075388;28;20136;-27
2022/12/14 09:46:35;;;;;;;76.97;32.23;;;-5.90;99.90;;;;;;5075400;28;20475;-27
2022/12/14 09:49:02;;;;;;;72.20;30.43;;;-5.80;99.90;;;;;;5075318;28;20482;-27
2022/12/14 09:51:35;;;;;;;81.83;31.53;;;-5.70;99.90;;;;;;5075190;28;20067;-27
2022/12/14 09:54:09;;;;;;;66.77;31.37;;;-5.70;99.90;;;;;;5075196;28;20049;-27
2022/12/14 09:56:37;;;;;;;68.30;30.43;;;-5.60;99.90;;;;;;5074917;28;20377;-27
2022/12/14 09:59:04;;;;;;;68.30;28.87;;;-5.60;99.90;;;;;;5074977;28;20509;-27
2022/12/14 10:01:47;;;;;;;67.27;30.53;;;-5.60;99.90;;;;;;5057358;28;20044;-27
2022/12/14 10:04:30;;;;;;;68.30;29.87;;;-5.60;99.90;;;;;;5075786;28;20056;-27
2022/12/14 10:07:15;;;;;;;71.13;30.23;;;-5.60;99.90;;;;;;5073719;28;20128;-27
2022/12/14 10:10:02;;;;;;;69.60;30.77;;;-5.60;99.90;;;;;;5075182;28;20566;-27
2022/12/14 10:12:37;;;;;;;76.43;31.57;;;-5.40;99.90;;;;;;5074814;28;20537;-27
2022/12/14 10:15:21;;;;;;;71.90;28.67;;;-5.40;99.90;;;;;;5074101;28;20059;-27
2022/12/14 10:18:10;;;;;;;68.40;29.43;;;-5.30;99.90;;;;;;5074056;28;20045;-27
2022/12/14 10:20:47;;;;;;;65.10;29.30;;;-5.20;99.90;;;;;;5074664;28;20482;-27
2022/12/14 10:23:19;;;;;;;70.00;30.33;;;-4.40;99.90;;;;;;5074572;28;20135;-27
2022/12/14 10:25:49;;;;;;;60.60;26.58;;;-5.00;99.90;;;;;;5074542;28;20052;-27
2022/12/14 10:28:21;;;;;;;64.77;28.97;;;-4.90;99.90;;;;;;5073347;28;20122;-27
2022/12/14 10:30:52;;;;;;;60.60;28.17;;;-4.80;99.90;;;;;;5074774;28;20048;-27
2022/12/14 10:33:26;;;;;;;68.10;28.67;;;-4.70;99.90;;;;;;5075289;28;20072;-27
2022/12/14 10:36:21;;;;;;;69.07;29.10;;;-4.70;99.90;;;;;;5075171;28;20386;-27
2022/12/14 10:39:02;;;;;;;66.63;28.93;;;-4.60;99.90;;;;;;5068133;28;20052;-27
2022/12/14 10:41:42;;;;;;;60.60;27.50;;;-4.50;99.90;;;;;;5073182;28;20047;-27
2022/12/14 10:44:29;;;;;;;66.50;27.30;;;-4.50;99.90;;;;;;5074834;28;20106;-27
2022/12/14 10:47:11;;;;;;;45.83;21.23;;;-4.40;99.90;;;;;;5075034;28;20076;-27
2022/12/14 10:50:08;;;;;;;49.33;22.93;;;-4.40;99.90;;;;;;5074182;28;20129;-27
2022/12/14 10:52:40;;;;;;;53.43;24.13;;;-4.30;99.90;;;;;;5074080;28;20048;-27
2022/12/14 10:55:14;;;;;;;54.03;25.03;;;-4.30;99.90;;;;;;5074698;28;20399;-29
2022/12/14 10:57:40;;;;;;;48.70;22.77;;;-4.20;99.90;;;;;;5074519;28;20306;-27
2022/12/14 11:00:15;;;;;;;50.57;23.70;;;-4.10;99.90;;;;;;5073991;28;20045;-28
2022/12/14 11:02:47;;;;;;;44.77;23.63;;;-4.10;99.90;;;;;;5074010;28;20141;-28
2022/12/14 11:05:27;;;;;;;58.77;25.07;;;-4.00;99.90;;;;;;5073933;28;20092;-28
2022/12/14 11:07:54;;;;;;;52.20;24.00;;;-4.00;99.90;;;;;;5073886;28;20079;-28
2022/12/14 11:10:27;;;;;;;50.40;24.27;;;-3.90;99.90;;;;;;5072718;28;20063;-28
2022/12/14 11:13:00;;;;;;;49.08;23.95;;;-3.80;99.90;;;;;;5055997;28;20540;-28
2022/12/14 11:15:32;;;;;;;44.07;22.67;;;-3.70;99.90;;;;;;5056667;28;20423;-27
2022/12/14 11:18:29;;;;;;;49.87;24.43;;;-3.60;99.90;;;;;;5074518;28;20359;-28
2022/12/14 11:20:59;;;;;;;47.67;24.37;;;-3.50;99.90;;;;;;5071959;28;20052;-28
2022/12/14 11:23:29;;;;;;;50.37;23.70;;;-3.50;99.90;;;;;;5072974;28;20616;-29
2022/12/14 11:25:58;;;;;;;46.67;24.43;;;-3.40;99.90;;;;;;5073695;28;20044;-28
2022/12/14 11:28:47;;;;;;;50.17;23.70;;;-3.30;99.90;;;;;;5073611;28;20040;-28
2022/12/14 11:31:19;;;;;;;44.90;22.97;;;-3.20;99.90;;;;;;5074192;28;20059;-28
2022/12/14 11:33:54;;;;;;;43.80;20.92;;;-3.20;99.90;;;;;;5056471;28;20055;-28
2022/12/14 11:36:28;;;;;;;47.67;24.43;;;-3.10;99.90;;;;;;5072037;28;20047;-28
2022/12/14 11:38:58;;;;;;;40.50;20.57;;;-3.00;99.90;;;;;;5073582;28;20174;-28
2022/12/14 11:41:30;;;;;;;39.53;21.20;;;-2.90;99.90;;;;;;5074426;28;20056;-28
2022/12/14 11:44:08;;;;;;;36.57;19.40;;;-2.90;99.90;;;;;;5074094;28;20080;-28
2022/12/14 11:46:46;;;;;;;41.37;19.60;;;-2.80;99.90;;;;;;5074369;28;20041;-29
2022/12/14 11:49:36;;;;;;;38.83;19.90;;;-2.70;99.90;;;;;;5073473;28;20087;-28
2022/12/14 11:52:09;;;;;;;36.00;18.60;;;-2.70;99.90;;;;;;5073396;28;20102;-28
2022/12/14 11:54:40;;;;;;;34.10;17.30;;;-2.60;99.90;;;;;;5073394;28;20049;-28
2022/12/14 11:57:12;;;;;;;33.23;17.23;;;-2.50;99.90;;;;;;5055574;28;20052;-28
2022/12/14 11:59:44;;;;;;;32.37;17.13;;;-2.50;99.90;;;;;;5071806;28;20045;-28
2022/12/14 12:02:19;;;;;;;40.30;18.67;;;-2.50;99.90;;;;;;5072094;28;20437;-29
2022/12/14 12:04:51;;;;;;;40.50;18.27;;;-2.40;99.90;;;;;;5072643;28;20143;-28
2022/12/14 12:07:28;;;;;;;35.25;18.60;;;-2.40;99.90;;;;;;5073307;28;20049;-28
2022/12/14 12:09:58;;;;;;;35.63;19.20;;;-2.30;99.90;;;;;;5073562;28;20040;-30
2022/12/14 12:12:24;;;;;;;30.13;16.47;;;-2.20;99.90;;;;;;5055863;28;20092;-28
2022/12/14 12:14:54;;;;;;;34.57;17.17;;;-2.20;99.90;;;;;;5073504;28;20170;-28
2022/12/14 12:17:40;;;;;;;29.70;17.33;;;-2.10;99.90;;;;;;5073152;28;20048;-28
2022/12/14 12:20:36;;;;;;;33.57;16.87;;;-2.10;99.90;;;;;;5073400;28;20425;-28
2022/12/14 12:23:15;;;;;;;34.63;17.43;;;-2.10;99.90;;;;;;5073904;28;20084;-28
2022/12/14 12:25:43;;;;;;;30.17;15.57;;;-1.90;99.90;;;;;;5077479;28;20098;-29
2022/12/14 12:28:25;;;;;;;28.23;13.90;;;-1.50;99.90;;;;;;5076840;28;20049;-28
2022/12/14 12:31:02;;;;;;;27.88;15.02;;;-0.90;99.90;;;;;;5077659;28;20072;-30
2022/12/14 12:33:36;;;;;;;28.88;13.13;;;-0.50;99.90;;;;;;5077595;28;20048;-30
2022/12/14 12:36:05;;;;;;;30.38;13.45;;;-0.10;99.90;;;;;;5077557;28;20057;-30
2022/12/14 12:38:31;;;;;;;22.02;12.73;;;0.30;99.90;;;;;;5076445;28;20118;-31
2022/12/14 12:41:05;;;;;;;22.25;12.57;;;0.50;99.90;;;;;;5075450;28;20048;-31
2022/12/14 12:43:40;;;;;;;24.98;14.07;;;0.80;99.90;;;;;;5076661;28;20127;-32
2022/12/14 12:46:21;;;;;;;24.88;14.20;;;1.10;99.90;;;;;;5076867;28;20124;-32
2022/12/14 12:48:57;;;;;;;26.00;14.80;;;1.40;99.90;;;;;;5077357;28;20045;-33
2022/12/14 12:51:28;;;;;;;22.65;13.45;;;;;;;;;;5076480;28;20048;-32
2022/12/14 12:54:03;;;;;;;23.08;14.93;;;1.80;99.90;;;;;;5076358;28;20510;-33
2022/12/14 12:56:49;;;;;;;27.40;14.82;;;2.20;99.90;;;;;;5076301;28;20091;-33
2022/12/14 12:59:23;;;;;;;22.65;13.30;;;2.60;99.90;;;;;;5077120;28;20422;-33
2022/12/14 13:01:52;;;;;;;21.33;13.13;;;;;;;;;;5076952;28;20594;-34
2022/12/14 13:04:29;;;;;;;27.40;13.85;;;2.70;99.90;;;;;;5076184;28;20079;-33